createdAt,value
2023-12-01T00:00:56.713Z,4.18
2023-12-01T00:03:23.393Z,4.13
2023-12-01T00:05:50.060Z,4.13
2023-12-01T00:08:16.593Z,4.19
2023-12-01T00:10:43.317Z,4.24
2023-12-01T00:13:09.982Z,4.10
2023-12-01T00:15:36.630Z,4.03
2023-12-01T00:18:04.752Z,4.06
2023-12-01T00:20:32.344Z,4.07
2023-12-01T00:22:59.548Z,4.05
2023-12-01T00:25:26.280Z,3.96
2023-12-01T00:27:52.916Z,3.98
2023-12-01T00:30:19.829Z,3.96
2023-12-01T00:32:46.446Z,4.16
2023-12-01T00:35:14.695Z,4.18
2023-12-01T00:37:41.301Z,4.28
2023-12-01T00:40:11.282Z,4.21
2023-12-01T00:42:38.297Z,4.25
2023-12-01T00:45:06.524Z,4.10
2023-12-01T00:47:33.156Z,4.19
2023-12-01T00:49:59.749Z,4.18
2023-12-01T00:52:27.695Z,4.25
2023-12-01T00:54:54.356Z,4.16
2023-12-01T00:57:20.949Z,4.15
2023-12-01T00:59:47.502Z,4.09
2023-12-01T01:02:14.456Z,4.17
2023-12-01T01:04:41.483Z,4.03
2023-12-01T01:07:08.281Z,3.97
2023-12-01T01:09:36.395Z,4.07
2023-12-01T01:12:03.905Z,4.06
2023-12-01T01:14:30.548Z,3.99
2023-12-01T01:16:57.266Z,3.93
2023-12-01T01:19:23.923Z,3.96
2023-12-01T01:21:50.576Z,3.99
2023-12-01T01:24:17.160Z,3.99
2023-12-01T01:26:45.245Z,3.98
2023-12-01T01:29:11.899Z,4.02
2023-12-01T01:31:38.584Z,3.88
2023-12-01T01:34:05.241Z,3.62
2023-12-01T01:36:33.230Z,3.73
2023-12-01T01:39:00.478Z,3.81
2023-12-01T01:41:27.033Z,3.73
2023-12-01T01:43:55.081Z,3.74
2023-12-01T01:46:21.970Z,3.61
2023-12-01T01:48:49.013Z,3.62
2023-12-01T01:51:16.294Z,3.63
2023-12-01T01:53:43.005Z,3.52
2023-12-01T01:56:13.174Z,3.62
2023-12-01T01:58:39.962Z,3.67
2023-12-01T02:01:09.164Z,3.83
2023-12-01T02:03:36.344Z,3.88
2023-12-01T02:06:07.620Z,3.52
2023-12-01T02:08:37.439Z,3.48
2023-12-01T02:11:04.386Z,3.54
2023-12-01T02:13:31.021Z,3.43
2023-12-01T02:16:00.931Z,3.57
2023-12-01T02:18:31.769Z,3.60
2023-12-01T02:20:59.500Z,3.74
2023-12-01T02:23:30.123Z,3.69
2023-12-01T02:25:56.742Z,3.73
2023-12-01T02:28:23.389Z,3.65
2023-12-01T02:30:52.548Z,3.25
2023-12-01T02:33:23.272Z,3.76
2023-12-01T02:35:51.148Z,3.53
2023-12-01T02:38:18.231Z,3.49
2023-12-01T02:40:50.721Z,3.56
2023-12-01T02:43:18.429Z,3.62
2023-12-01T02:45:45.536Z,3.70
2023-12-01T02:48:12.269Z,3.36
2023-12-01T02:50:39.193Z,3.38
2023-12-01T02:53:06.487Z,3.35
2023-12-01T02:55:33.270Z,3.14
2023-12-01T02:58:01.552Z,3.30
2023-12-01T03:00:28.205Z,3.28
2023-12-01T03:02:54.822Z,3.14
2023-12-01T03:05:22.209Z,3.18
2023-12-01T03:07:49.243Z,3.04
2023-12-01T03:10:16.659Z,3.08
2023-12-01T03:12:44.550Z,3.03
2023-12-01T03:15:13.785Z,3.34
2023-12-01T03:17:41.159Z,3.22
2023-12-01T03:20:10.362Z,3.29
2023-12-01T03:22:37.669Z,3.12
2023-12-01T03:25:10.906Z,3.24
2023-12-01T03:27:41.061Z,3.31
2023-12-01T03:30:14.714Z,3.14
2023-12-01T03:32:46.875Z,3.46
2023-12-01T03:35:14.462Z,3.44
2023-12-01T03:37:41.575Z,3.36
2023-12-01T03:40:09.491Z,3.36
2023-12-01T03:42:38.056Z,3.43
2023-12-01T03:45:08.024Z,3.35
2023-12-01T03:47:35.643Z,3.30
2023-12-01T03:50:05.137Z,3.24
2023-12-01T03:52:32.051Z,3.33
2023-12-01T03:55:02.846Z,3.22
2023-12-01T03:57:29.469Z,3.31
2023-12-01T03:59:56.096Z,3.19
2023-12-01T04:02:25.456Z,3.30
2023-12-01T04:04:52.154Z,3.33
2023-12-01T04:07:20.148Z,3.33
2023-12-01T04:09:47.127Z,3.49
2023-12-01T04:12:14.392Z,3.46
2023-12-01T04:14:40.978Z,3.39
2023-12-01T04:17:10.594Z,3.34
2023-12-01T04:19:38.165Z,3.36
2023-12-01T04:22:06.110Z,3.36
2023-12-01T04:24:34.835Z,3.29
2023-12-01T04:27:01.669Z,3.29
2023-12-01T04:29:29.245Z,3.21
2023-12-01T04:32:01.405Z,3.16
2023-12-01T04:34:28.843Z,3.23
2023-12-01T04:36:55.784Z,3.11
2023-12-01T04:39:22.521Z,3.20
2023-12-01T04:41:51.432Z,2.93
2023-12-01T04:44:18.061Z,3.04
2023-12-01T04:46:44.842Z,3.21
2023-12-01T04:49:11.757Z,3.07
2023-12-01T04:51:38.526Z,3.05
2023-12-01T04:54:08.310Z,2.99
2023-12-01T04:56:35.052Z,3.00
2023-12-01T04:59:03.083Z,3.08
2023-12-01T05:01:30.203Z,3.05
2023-12-01T05:03:59.387Z,2.94
2023-12-01T05:06:26.380Z,3.05
2023-12-01T05:08:52.967Z,3.02
2023-12-01T05:11:19.643Z,3.04
2023-12-01T05:13:48.809Z,3.25
2023-12-01T05:16:18.772Z,3.17
2023-12-01T05:18:45.515Z,3.30
2023-12-01T05:21:12.314Z,3.33
2023-12-01T05:23:38.965Z,3.35
2023-12-01T05:26:06.036Z,3.36
2023-12-01T05:28:32.599Z,3.27
2023-12-01T05:30:59.256Z,3.19
2023-12-01T05:33:28.180Z,3.18
2023-12-01T05:35:54.851Z,3.07
2023-12-01T05:38:21.746Z,3.26
2023-12-01T05:40:48.296Z,3.27
2023-12-01T05:43:18.124Z,3.34
2023-12-01T05:45:45.284Z,3.36
2023-12-01T05:48:12.179Z,3.15
2023-12-01T05:50:43.965Z,3.29
2023-12-01T05:53:12.495Z,3.29
2023-12-01T05:55:39.352Z,3.35
2023-12-01T05:58:07.655Z,3.37
2023-12-01T06:00:34.302Z,3.44
2023-12-01T06:03:04.709Z,3.40
2023-12-01T06:05:32.363Z,3.33
2023-12-01T06:08:00.725Z,3.42
2023-12-01T06:10:28.357Z,3.46
2023-12-01T06:12:55.380Z,3.49
2023-12-01T06:15:22.507Z,3.52
2023-12-01T06:17:51.315Z,3.51
2023-12-01T06:20:20.205Z,3.51
2023-12-01T06:22:48.025Z,3.42
2023-12-01T06:25:16.785Z,3.41
2023-12-01T06:27:43.710Z,3.53
2023-12-01T06:30:14.721Z,3.40
2023-12-01T06:32:41.725Z,3.46
2023-12-01T06:35:11.039Z,3.51
2023-12-01T06:37:37.638Z,3.54
2023-12-01T06:40:05.146Z,3.41
2023-12-01T06:42:33.124Z,3.50
2023-12-01T06:44:59.991Z,3.59
2023-12-01T06:47:26.616Z,3.49
2023-12-01T06:49:53.147Z,3.51
2023-12-01T06:52:20.300Z,3.49
2023-12-01T06:54:46.954Z,3.49
2023-12-01T06:57:13.485Z,3.49
2023-12-01T06:59:41.401Z,3.44
2023-12-01T07:02:08.038Z,3.31
2023-12-01T07:04:34.672Z,3.51
2023-12-01T07:07:04.314Z,3.43
2023-12-01T07:09:31.191Z,3.49
2023-12-01T07:11:59.702Z,3.47
2023-12-01T07:14:26.381Z,3.56
2023-12-01T07:16:54.337Z,3.42
2023-12-01T07:19:21.054Z,3.46
2023-12-01T07:21:47.674Z,3.55
2023-12-01T07:24:14.379Z,3.50
2023-12-01T07:26:40.941Z,3.44
2023-12-01T07:29:07.544Z,3.49
2023-12-01T07:31:38.983Z,3.58
2023-12-01T07:34:06.968Z,3.68
2023-12-01T07:36:40.600Z,3.57
2023-12-01T07:39:09.816Z,3.66
2023-12-01T07:41:36.997Z,3.54
2023-12-01T07:44:04.303Z,3.56
2023-12-01T07:46:33.947Z,3.71
2023-12-01T07:49:08.931Z,3.70
2023-12-01T07:51:37.683Z,3.60
2023-12-01T07:54:05.450Z,3.57
2023-12-01T07:56:31.844Z,3.58
2023-12-01T07:58:58.927Z,3.61
2023-12-01T08:01:25.635Z,3.58
2023-12-01T08:03:52.347Z,3.75
2023-12-01T08:06:18.996Z,3.59
2023-12-01T08:08:46.892Z,3.59
2023-12-01T08:11:13.628Z,3.57
2023-12-01T08:13:40.307Z,3.50
2023-12-01T08:16:08.007Z,3.72
2023-12-01T08:18:34.706Z,3.73
2023-12-01T08:21:01.568Z,3.68
2023-12-01T08:23:28.800Z,3.70
2023-12-01T08:25:56.718Z,3.57
2023-12-01T08:28:23.449Z,3.63
2023-12-01T08:30:50.395Z,3.61
2023-12-01T08:33:17.651Z,3.72
2023-12-01T08:35:44.755Z,3.81
2023-12-01T08:38:11.438Z,3.73
2023-12-01T08:40:43.310Z,3.48
2023-12-01T08:43:12.350Z,3.75
2023-12-01T08:45:38.986Z,3.43
2023-12-01T08:48:05.827Z,3.76
2023-12-01T08:50:32.528Z,3.85
2023-12-01T08:52:59.162Z,3.78
2023-12-01T08:55:25.882Z,3.84
2023-12-01T08:57:52.501Z,3.84
2023-12-01T09:00:24.783Z,3.68
2023-12-01T09:02:52.116Z,3.79
2023-12-01T09:05:19.095Z,3.93
2023-12-01T09:07:48.124Z,3.93
2023-12-01T09:10:15.158Z,3.86
2023-12-01T09:12:41.757Z,4.06
2023-12-01T09:15:09.643Z,3.98
2023-12-01T09:17:37.686Z,3.94
2023-12-01T09:20:05.279Z,4.05
2023-12-01T09:22:31.880Z,4.04
2023-12-01T09:24:58.635Z,4.06
2023-12-01T09:27:25.920Z,4.09
2023-12-01T09:29:52.684Z,4.02
2023-12-01T09:32:20.259Z,4.05
2023-12-01T09:34:48.661Z,4.28
2023-12-01T09:37:15.584Z,4.19
2023-12-01T09:39:43.715Z,4.03
2023-12-01T09:42:11.926Z,4.05
2023-12-01T09:44:38.585Z,4.19
2023-12-01T09:47:05.621Z,4.05
2023-12-01T09:49:34.586Z,4.16
2023-12-01T09:52:03.684Z,4.17
2023-12-01T09:54:30.527Z,4.07
2023-12-01T09:56:58.420Z,3.96
2023-12-01T09:59:25.077Z,4.05
2023-12-01T10:01:52.685Z,4.04
2023-12-01T10:04:20.556Z,3.99
2023-12-01T10:06:48.050Z,4.12
2023-12-01T10:09:26.396Z,4.13
2023-12-01T10:12:05.311Z,4.16
2023-12-01T10:14:33.302Z,4.19
2023-12-01T10:17:02.808Z,4.32
2023-12-01T10:19:32.114Z,4.27
2023-12-01T10:21:59.405Z,4.34
2023-12-01T10:24:30.525Z,4.30
2023-12-01T10:26:59.143Z,4.41
2023-12-01T10:29:29.623Z,4.42
2023-12-01T10:31:58.226Z,4.41
2023-12-01T10:34:25.206Z,4.16
2023-12-01T10:36:55.625Z,4.13
2023-12-01T10:39:25.563Z,4.22
2023-12-01T10:41:57.163Z,4.29
2023-12-01T10:44:26.693Z,4.34
2023-12-01T10:46:54.793Z,4.45
2023-12-01T10:49:22.708Z,4.39
2023-12-01T10:51:57.510Z,4.19
2023-12-01T10:54:26.874Z,4.37
2023-12-01T10:57:04.085Z,4.61
2023-12-01T10:59:32.895Z,4.34
2023-12-01T11:02:00.950Z,4.41
2023-12-01T11:04:28.143Z,4.35
2023-12-01T11:07:05.448Z,4.59
2023-12-01T11:09:38.698Z,4.50
2023-12-01T11:12:13.414Z,4.55
2023-12-01T11:14:40.462Z,4.65
2023-12-01T11:17:07.732Z,4.77
2023-12-01T11:19:35.692Z,4.47
2023-12-01T11:22:23.483Z,4.55
2023-12-01T11:24:50.122Z,4.63
2023-12-01T11:27:18.153Z,4.52
2023-12-01T11:29:58.781Z,4.56
2023-12-01T11:32:33.223Z,4.45
2023-12-01T11:35:08.312Z,4.50
2023-12-01T11:38:02.558Z,4.54
2023-12-01T11:40:38.936Z,4.63
2023-12-01T11:43:15.396Z,4.52
2023-12-01T11:45:48.556Z,4.64
2023-12-01T11:48:15.574Z,4.44
2023-12-01T11:50:42.773Z,4.46
2023-12-01T11:53:13.668Z,4.28
2023-12-01T11:55:40.388Z,4.31
2023-12-01T11:58:08.345Z,4.46
2023-12-01T12:00:35.394Z,4.39
2023-12-01T12:03:02.080Z,4.42
2023-12-01T12:05:29.499Z,4.27
2023-12-01T12:07:56.272Z,4.40
2023-12-01T12:10:23.327Z,4.49
2023-12-01T12:12:51.295Z,4.55
2023-12-01T12:15:19.642Z,4.59
2023-12-01T12:17:50.371Z,4.61
2023-12-01T12:20:23.878Z,4.56
2023-12-01T12:22:50.725Z,4.47
2023-12-01T12:25:17.396Z,4.38
2023-12-01T12:27:45.916Z,4.31
2023-12-01T12:30:12.931Z,4.32
2023-12-01T12:32:41.028Z,4.41
2023-12-01T12:35:11.908Z,4.21
2023-12-01T12:37:38.526Z,4.16
2023-12-01T12:40:06.318Z,4.36
2023-12-01T12:42:33.180Z,4.35
2023-12-01T12:44:59.809Z,4.16
2023-12-01T12:47:26.612Z,4.12
2023-12-01T12:49:54.930Z,4.14
2023-12-01T12:52:21.522Z,4.17
2023-12-01T12:54:48.476Z,4.27
2023-12-01T12:57:15.202Z,4.32
2023-12-01T12:59:41.776Z,4.33
2023-12-01T13:02:08.662Z,4.32
2023-12-01T13:04:35.429Z,4.47
2023-12-01T13:07:03.649Z,4.52
2023-12-01T13:09:30.274Z,4.51
2023-12-01T13:11:56.942Z,4.29
2023-12-01T13:14:23.595Z,4.38
2023-12-01T13:16:55.738Z,4.34
2023-12-01T13:19:23.823Z,4.21
2023-12-01T13:21:53.037Z,4.23
2023-12-01T13:24:23.741Z,4.11
2023-12-01T13:26:51.210Z,4.13
2023-12-01T13:29:18.045Z,4.04
2023-12-01T13:31:44.671Z,4.03
2023-12-01T13:34:11.698Z,4.14
2023-12-01T13:36:38.319Z,4.16
2023-12-01T13:39:04.927Z,3.98
2023-12-01T13:41:32.878Z,4.16
2023-12-01T13:43:59.575Z,3.98
2023-12-01T13:46:26.271Z,4.05
2023-12-01T13:48:53.062Z,4.08
2023-12-01T13:51:20.218Z,3.89
2023-12-01T13:53:47.030Z,4.04
2023-12-01T13:56:13.817Z,4.23
2023-12-01T13:58:44.499Z,4.11
2023-12-01T14:01:12.679Z,4.03
2023-12-01T14:03:40.055Z,3.99
2023-12-01T14:06:07.606Z,4.08
2023-12-01T14:08:34.605Z,4.23
2023-12-01T14:11:01.282Z,4.25
2023-12-01T14:13:27.829Z,4.18
2023-12-01T14:15:55.823Z,4.23
2023-12-01T14:18:22.745Z,4.01
2023-12-01T14:20:49.798Z,4.06
2023-12-01T14:23:16.619Z,3.92
2023-12-01T14:25:43.274Z,3.92
2023-12-01T14:28:09.865Z,3.89
2023-12-01T14:30:36.513Z,4.06
2023-12-01T14:33:04.729Z,4.15
2023-12-01T14:35:31.517Z,4.06
2023-12-01T14:37:59.132Z,4.03
2023-12-01T14:40:25.853Z,3.97
2023-12-01T14:42:52.846Z,3.97
2023-12-01T14:45:19.650Z,3.90
2023-12-01T14:47:46.458Z,3.82
2023-12-01T14:50:15.097Z,3.92
2023-12-01T14:52:43.609Z,3.75
2023-12-01T14:55:10.418Z,3.76
2023-12-01T14:57:37.073Z,3.83
2023-12-01T15:00:08.830Z,3.75
2023-12-01T15:02:35.600Z,3.78
2023-12-01T15:05:02.251Z,3.74
2023-12-01T15:07:30.157Z,3.70
2023-12-01T15:09:56.764Z,3.65
2023-12-01T15:12:23.496Z,3.64
2023-12-01T15:14:50.169Z,3.68
2023-12-01T15:17:16.748Z,3.58
2023-12-01T15:19:43.420Z,3.73
2023-12-01T15:22:10.055Z,3.70
2023-12-01T15:24:37.995Z,3.59
2023-12-01T15:27:04.875Z,3.46
2023-12-01T15:29:31.519Z,3.56
2023-12-01T15:31:58.132Z,3.54
2023-12-01T15:34:24.762Z,3.40
2023-12-01T15:36:51.445Z,3.45
2023-12-01T15:39:18.156Z,3.47
2023-12-01T15:41:46.286Z,3.59
2023-12-01T15:44:12.902Z,3.47
2023-12-01T15:46:39.580Z,3.32
2023-12-01T15:49:06.172Z,3.43
2023-12-01T15:51:32.745Z,3.35
2023-12-01T15:53:59.480Z,3.33
2023-12-01T15:56:26.091Z,3.30
2023-12-01T15:58:57.056Z,3.24
2023-12-01T16:01:23.917Z,3.22
2023-12-01T16:03:51.129Z,3.33
2023-12-01T16:06:18.037Z,3.18
2023-12-01T16:08:44.714Z,3.19
2023-12-01T16:11:11.328Z,3.10
2023-12-01T16:13:37.895Z,3.15
2023-12-01T16:16:06.488Z,3.01
2023-12-01T16:18:33.157Z,3.02
2023-12-01T16:20:59.986Z,3.02
2023-12-01T16:23:26.649Z,3.04
2023-12-01T16:25:53.225Z,3.08
2023-12-01T16:28:21.506Z,2.95
2023-12-01T16:30:50.146Z,2.90
2023-12-01T16:33:25.004Z,2.78
2023-12-01T16:35:52.908Z,2.92
2023-12-01T16:38:19.598Z,2.82
2023-12-01T16:40:46.241Z,2.90
2023-12-01T16:43:13.282Z,2.86
2023-12-01T16:45:40.075Z,2.71
2023-12-01T16:48:08.341Z,2.66
2023-12-01T16:50:41.845Z,2.87
2023-12-01T16:53:08.498Z,2.58
2023-12-01T16:55:39.581Z,2.73
2023-12-01T16:58:13.429Z,2.73
2023-12-01T17:00:47.303Z,2.73
2023-12-01T17:03:13.948Z,2.51
2023-12-01T17:05:42.015Z,2.68
2023-12-01T17:08:08.634Z,2.66
2023-12-01T17:10:35.272Z,2.66
2023-12-01T17:13:01.827Z,2.69
2023-12-01T17:15:28.814Z,2.60
2023-12-01T17:17:55.472Z,2.56
2023-12-01T17:20:22.249Z,2.47
2023-12-01T17:22:50.196Z,2.46
2023-12-01T17:25:17.044Z,2.58
2023-12-01T17:27:44.193Z,2.51
2023-12-01T17:30:12.155Z,2.42
2023-12-01T17:32:40.342Z,2.44
2023-12-01T17:35:07.676Z,2.29
2023-12-01T17:37:34.314Z,2.28
2023-12-01T17:40:02.735Z,2.36
2023-12-01T17:42:31.014Z,2.39
2023-12-01T17:44:58.597Z,2.38
2023-12-01T17:47:25.206Z,2.41
2023-12-01T17:49:51.851Z,2.17
2023-12-01T17:52:18.418Z,2.26
2023-12-01T17:54:45.001Z,2.32
2023-12-01T17:57:12.984Z,2.31
2023-12-01T17:59:39.586Z,2.24
2023-12-01T18:02:06.536Z,2.18
2023-12-01T18:04:34.538Z,2.17
2023-12-01T18:07:01.190Z,2.09
2023-12-01T18:09:27.922Z,2.21
2023-12-01T18:11:54.811Z,2.08
2023-12-01T18:14:22.818Z,2.03
2023-12-01T18:16:50.468Z,2.24
2023-12-01T18:19:17.281Z,2.22
2023-12-01T18:21:43.945Z,2.31
2023-12-01T18:24:10.606Z,2.19
2023-12-01T18:26:40.925Z,2.18
2023-12-01T18:29:09.328Z,2.17
2023-12-01T18:31:37.814Z,2.07
2023-12-01T18:34:04.655Z,2.14
2023-12-01T18:36:31.334Z,2.23
2023-12-01T18:38:58.032Z,2.24
2023-12-01T18:41:24.758Z,2.20
2023-12-01T18:43:51.421Z,2.27
2023-12-01T18:46:18.065Z,2.02
2023-12-01T18:48:46.215Z,2.07
2023-12-01T18:51:12.924Z,2.06
2023-12-01T18:53:39.547Z,2.16
2023-12-01T18:56:08.426Z,2.02
2023-12-01T18:58:35.036Z,2.08
2023-12-01T19:01:01.695Z,2.19
2023-12-01T19:03:28.506Z,2.15
2023-12-01T19:05:56.713Z,1.98
2023-12-01T19:08:23.324Z,1.93
2023-12-01T19:10:51.941Z,2.04
2023-12-01T19:13:20.291Z,2.09
2023-12-01T19:15:47.102Z,2.09
2023-12-01T19:18:14.018Z,2.17
2023-12-01T19:20:40.784Z,1.98
2023-12-01T19:23:08.686Z,1.91
2023-12-01T19:25:35.205Z,1.99
2023-12-01T19:28:01.760Z,1.79
2023-12-01T19:30:28.412Z,1.95
2023-12-01T19:32:55.371Z,1.94
2023-12-01T19:35:22.096Z,1.84
2023-12-01T19:37:49.988Z,1.81
2023-12-01T19:40:18.075Z,1.62
2023-12-01T19:42:44.657Z,1.65
2023-12-01T19:45:17.537Z,1.77
2023-12-01T19:47:44.244Z,1.82
2023-12-01T19:50:10.889Z,1.63
2023-12-01T19:52:37.759Z,1.78
2023-12-01T19:55:05.290Z,1.91
2023-12-01T19:57:33.240Z,1.87
2023-12-01T19:59:59.988Z,1.82
2023-12-01T20:02:29.282Z,1.64
2023-12-01T20:04:56.198Z,1.73
2023-12-01T20:07:22.828Z,1.70
2023-12-01T20:09:49.433Z,1.73
2023-12-01T20:12:16.870Z,1.87
2023-12-01T20:14:44.775Z,1.74
2023-12-01T20:17:11.247Z,1.81
2023-12-01T20:19:38.655Z,1.84
2023-12-01T20:22:05.258Z,1.62
2023-12-01T20:24:31.872Z,1.84
2023-12-01T20:26:58.488Z,1.86
2023-12-01T20:29:25.379Z,1.96
2023-12-01T20:31:53.297Z,1.95
2023-12-01T20:34:19.963Z,1.94
2023-12-01T20:36:46.570Z,1.80
2023-12-01T20:39:13.154Z,1.86
2023-12-01T20:41:39.935Z,1.90
2023-12-01T20:44:06.656Z,1.87
2023-12-01T20:46:33.290Z,1.83
2023-12-01T20:49:01.568Z,1.98
2023-12-01T20:51:28.295Z,2.05
2023-12-01T20:53:55.153Z,2.03
2023-12-01T20:56:21.769Z,1.87
2023-12-01T20:58:48.440Z,1.96
2023-12-01T21:01:15.017Z,1.78
2023-12-01T21:03:41.578Z,1.90
2023-12-01T21:06:10.275Z,1.84
2023-12-01T21:08:36.943Z,1.72
2023-12-01T21:11:03.579Z,1.94
2023-12-01T21:13:30.176Z,1.93
2023-12-01T21:15:56.795Z,1.93
2023-12-01T21:18:23.670Z,2.06
2023-12-01T21:20:50.410Z,1.95
2023-12-01T21:23:18.354Z,1.96
2023-12-01T21:25:44.943Z,1.88
2023-12-01T21:28:11.483Z,1.92
2023-12-01T21:30:39.709Z,1.83
2023-12-01T21:33:08.688Z,1.74
2023-12-01T21:35:35.671Z,1.70
2023-12-01T21:38:02.252Z,1.75
2023-12-01T21:40:30.744Z,1.71
2023-12-01T21:42:58.018Z,1.70
2023-12-01T21:45:24.583Z,1.75
2023-12-01T21:47:51.317Z,1.71
2023-12-01T21:50:18.081Z,1.69
2023-12-01T21:52:44.747Z,1.58
2023-12-01T21:55:11.354Z,1.39
2023-12-01T21:57:39.346Z,1.49
2023-12-01T22:00:07.417Z,1.58
2023-12-01T22:02:34.489Z,1.58
2023-12-01T22:05:01.168Z,1.48
2023-12-01T22:07:27.766Z,1.43
2023-12-01T22:09:54.493Z,1.46
2023-12-01T22:12:21.118Z,1.54
2023-12-01T22:14:49.059Z,1.59
2023-12-01T22:17:15.737Z,1.58
2023-12-01T22:19:42.462Z,1.48
2023-12-01T22:22:18.750Z,1.60
2023-12-01T22:24:46.715Z,1.73
2023-12-01T22:27:13.539Z,1.65
2023-12-01T22:29:40.174Z,1.53
2023-12-01T22:32:08.345Z,1.57
2023-12-01T22:34:35.208Z,1.66
2023-12-01T22:37:02.104Z,1.71
2023-12-01T22:39:30.117Z,1.66
2023-12-01T22:41:57.061Z,1.55
2023-12-01T22:44:23.778Z,1.49
2023-12-01T22:46:50.376Z,1.46
2023-12-01T22:49:18.510Z,1.50
2023-12-01T22:51:45.246Z,1.44
2023-12-01T22:54:11.819Z,1.51
2023-12-01T22:56:38.473Z,1.56
2023-12-01T22:59:05.139Z,1.46
2023-12-01T23:01:31.762Z,1.48
2023-12-01T23:03:58.539Z,1.48
2023-12-01T23:06:26.829Z,1.48
2023-12-01T23:08:56.022Z,1.57
2023-12-01T23:11:23.382Z,1.65
2023-12-01T23:13:50.072Z,1.69
2023-12-01T23:16:16.681Z,1.54
2023-12-01T23:18:43.463Z,1.46
2023-12-01T23:21:10.418Z,1.39
2023-12-01T23:23:38.391Z,1.59
2023-12-01T23:26:05.290Z,1.46
2023-12-01T23:28:31.939Z,1.24
2023-12-01T23:30:58.633Z,1.28
2023-12-01T23:33:25.360Z,1.41
2023-12-01T23:35:52.140Z,1.43
2023-12-01T23:38:18.812Z,1.43
2023-12-01T23:40:46.773Z,1.52
2023-12-01T23:43:13.333Z,1.28
2023-12-01T23:45:40.014Z,1.48
2023-12-01T23:48:09.748Z,1.47
2023-12-01T23:50:37.948Z,1.43
2023-12-01T23:53:04.588Z,1.44
2023-12-01T23:55:31.236Z,1.41
2023-12-01T23:57:59.225Z,1.37
